createdAt,value
2019-04-20T00:01:29.261Z,8.13
2019-04-20T00:06:38.265Z,9.10
2019-04-20T00:11:49.395Z,7.40
2019-04-20T00:16:44.245Z,8.60
2019-04-20T00:21:58.364Z,7.87
2019-04-20T00:27:19.600Z,9.33
2019-04-20T00:32:15.562Z,7.80
2019-04-20T00:37:12.910Z,8.60
2019-04-20T00:42:19.849Z,8.27
2019-04-20T00:47:37.568Z,9.07
2019-04-20T00:52:47.028Z,7.37
2019-04-20T00:57:46.689Z,9.90
2019-04-20T01:02:56.610Z,9.03
2019-04-20T01:08:06.929Z,8.77
2019-04-20T01:13:18.392Z,7.40
2019-04-20T01:18:19.496Z,6.20
2019-04-20T01:23:34.609Z,6.87
2019-04-20T01:28:46.396Z,8.40
2019-04-20T01:33:51.939Z,8.00
2019-04-20T01:38:56.459Z,7.17
2019-04-20T01:43:52.249Z,9.23
2019-04-20T01:49:00.216Z,12.07
2019-04-20T01:54:24.961Z,7.83
2019-04-20T01:59:51.537Z,8.03
2019-04-20T02:04:52.536Z,7.00
2019-04-20T02:10:03.055Z,7.00
2019-04-20T02:15:09.094Z,7.00
2019-04-20T02:20:36.223Z,8.43
2019-04-20T02:25:18.624Z,8.20
2019-04-20T02:31:04.998Z,8.57
2019-04-20T02:41:29.643Z,7.17
2019-04-20T02:46:31.609Z,6.90
2019-04-20T02:51:44.971Z,6.93
2019-04-20T02:56:47.678Z,8.27
2019-04-20T03:01:58.036Z,7.23
2019-04-20T03:06:39.753Z,9.10
2019-04-20T03:17:04.369Z,6.77
2019-04-20T03:22:16.100Z,6.47
2019-04-20T03:27:27.578Z,9.10
2019-04-20T03:33:02.413Z,8.00
2019-04-20T03:37:48.529Z,7.10
2019-04-20T03:42:35.517Z,6.73
2019-04-20T03:47:52.944Z,6.97
2019-04-20T03:53:19.583Z,6.73
2019-04-20T03:58:50.408Z,7.70
2019-04-20T04:04:16.903Z,6.70
2019-04-20T04:09:15.034Z,6.33
2019-04-20T04:14:07.891Z,6.23
2019-04-20T04:19:21.551Z,6.30
2019-04-20T04:24:29.194Z,6.53
2019-04-20T04:29:47.130Z,8.60
2019-04-20T04:34:51.452Z,7.63
2019-04-20T04:40:05.032Z,10.17
2019-04-20T04:44:53.656Z,7.07
2019-04-20T04:49:59.984Z,6.70
2019-04-20T04:55:11.086Z,6.20
2019-04-20T05:00:10.233Z,6.10
2019-04-20T05:05:35.602Z,6.00
2019-04-20T05:10:26.638Z,6.00
2019-04-20T05:15:46.258Z,7.70
2019-04-20T05:21:00.306Z,8.23
2019-04-20T05:26:25.625Z,5.73
2019-04-20T05:31:11.361Z,6.27
2019-04-20T05:36:38.474Z,8.13
2019-04-20T05:41:41.926Z,6.83
2019-04-20T05:46:47.650Z,6.40
2019-04-20T05:51:56.139Z,6.43
2019-04-20T05:57:05.436Z,6.83
2019-04-20T06:02:09.678Z,7.47
2019-04-20T06:07:18.448Z,10.40
2019-04-20T06:12:20.094Z,10.97
2019-04-20T06:17:49.333Z,7.83
2019-04-20T06:22:57.172Z,9.63
2019-04-20T06:28:05.216Z,8.13
2019-04-20T06:34:01.230Z,9.07
2019-04-20T06:39:02.190Z,9.10
2019-04-20T06:44:02.552Z,10.80
2019-04-20T06:49:10.125Z,12.13
2019-04-20T06:54:42.126Z,13.67
2019-04-20T06:59:47.390Z,13.07
2019-04-20T07:04:57.643Z,10.93
2019-04-20T07:14:59.029Z,8.07
2019-04-20T07:20:35.123Z,6.97
2019-04-20T07:25:37.507Z,8.23
2019-04-20T07:30:46.452Z,7.17
2019-04-20T07:35:52.388Z,7.47
2019-04-20T07:40:55.802Z,5.80
2019-04-20T07:46:13.163Z,7.90
2019-04-20T07:50:57.965Z,6.37
2019-04-20T07:56:19.027Z,6.37
2019-04-20T08:01:54.804Z,6.97
2019-04-20T08:06:42.082Z,5.93
2019-04-20T08:12:07.460Z,6.40
2019-04-20T08:22:15.520Z,6.17
2019-04-20T08:27:07.669Z,6.17
2019-04-20T08:32:34.665Z,13.57
2019-04-20T08:37:48.914Z,13.00
2019-04-20T08:43:00.540Z,10.57
2019-04-20T08:47:56.625Z,8.23
2019-04-20T08:57:49.452Z,10.07
2019-04-20T09:03:00.903Z,12.97
2019-04-20T09:08:12.289Z,6.93
2019-04-20T09:13:18.600Z,7.33
2019-04-20T09:18:26.264Z,6.73
2019-04-20T09:23:49.685Z,7.10
2019-04-20T09:28:54.326Z,7.03
2019-04-20T09:34:14.484Z,7.83
2019-04-20T09:39:32.656Z,9.67
2019-04-20T09:44:39.804Z,8.17
2019-04-20T09:49:51.870Z,9.93
2019-04-20T09:55:04.309Z,6.33
2019-04-20T10:00:12.056Z,7.60
2019-04-20T10:05:01.989Z,9.97
2019-04-20T10:10:18.838Z,8.53
2019-04-20T10:15:19.616Z,19.27
2019-04-20T10:20:27.548Z,12.13
2019-04-20T10:25:28.687Z,11.60
2019-04-20T10:30:36.657Z,16.10
2019-04-20T10:35:41.360Z,12.13
2019-04-20T10:40:59.684Z,10.60
2019-04-20T10:45:53.297Z,9.17
2019-04-20T10:50:58.922Z,7.73
2019-04-20T10:56:05.315Z,8.13
2019-04-20T11:01:11.550Z,8.33
2019-04-20T11:06:16.827Z,10.07
2019-04-20T11:11:26.775Z,9.80
2019-04-20T11:16:30.630Z,8.03
2019-04-20T11:21:36.390Z,8.13
2019-04-20T11:26:43.163Z,7.23
2019-04-20T11:31:51.551Z,7.23
2019-04-20T11:36:55.139Z,9.67
2019-04-20T11:42:01.588Z,9.83
2019-04-20T11:47:06.816Z,9.43
2019-04-20T11:52:13.277Z,10.63
2019-04-20T11:57:21.565Z,10.50
2019-04-20T12:02:44.075Z,10.80
2019-04-20T12:08:02.876Z,9.47
2019-04-20T12:13:09.792Z,10.13
2019-04-20T12:18:15.762Z,11.87
2019-04-20T12:23:22.356Z,10.00
2019-04-20T12:28:29.539Z,11.33
2019-04-20T12:33:35.148Z,9.67
2019-04-20T12:38:41.313Z,9.67
2019-04-20T12:43:47.651Z,9.30
2019-04-20T12:48:53.532Z,9.97
2019-04-20T12:53:58.898Z,8.63
2019-04-20T12:59:05.390Z,9.83
2019-04-20T13:04:12.052Z,9.40
2019-04-20T13:09:18.733Z,8.40
2019-04-20T13:14:46.411Z,7.60
2019-04-20T13:19:53.259Z,8.30
2019-04-20T13:24:58.972Z,8.47
2019-04-20T13:30:05.085Z,8.13
2019-04-20T13:35:12.074Z,9.27
2019-04-20T13:40:18.170Z,7.23
2019-04-20T13:45:24.670Z,8.03
2019-04-20T13:50:30.126Z,9.30
2019-04-20T13:55:35.957Z,7.17
2019-04-20T14:01:12.590Z,10.33
2019-04-20T14:06:18.417Z,8.27
2019-04-20T14:11:23.514Z,9.00
2019-04-20T14:16:29.327Z,8.17
2019-04-20T14:21:34.476Z,10.13
2019-04-20T14:26:41.197Z,7.30
2019-04-20T14:31:46.187Z,8.80
2019-04-20T14:36:51.371Z,8.63
2019-04-20T14:41:56.632Z,8.67
2019-04-20T14:47:01.667Z,7.77
2019-04-20T14:52:08.072Z,8.63
2019-04-20T14:57:13.765Z,7.27
2019-04-20T15:02:21.651Z,7.93
2019-04-20T15:07:27.122Z,7.97
2019-04-20T15:12:44.468Z,7.20
2019-04-20T15:17:43.755Z,7.60
2019-04-20T15:22:51.555Z,6.97
2019-04-20T15:27:56.832Z,7.27
2019-04-20T15:33:03.118Z,7.50
2019-04-20T15:38:09.105Z,7.43
2019-04-20T15:43:18.069Z,7.93
2019-04-20T15:48:21.947Z,8.13
2019-04-20T15:53:27.353Z,7.97
2019-04-20T15:58:32.440Z,8.80
2019-04-20T16:03:45.571Z,8.57
2019-04-20T16:08:54.452Z,7.73
2019-04-20T16:14:00.222Z,8.43
2019-04-20T16:19:11.954Z,8.97
2019-04-20T16:24:16.773Z,7.60
2019-04-20T16:29:22.052Z,8.77
2019-04-20T16:34:27.607Z,9.63
2019-04-20T16:39:32.800Z,9.53
2019-04-20T16:44:38.902Z,10.30
2019-04-20T16:49:46.635Z,11.10
2019-04-20T16:54:51.914Z,9.90
2019-04-20T17:00:03.213Z,13.07
2019-04-20T17:05:09.400Z,14.47
2019-04-20T17:10:17.669Z,25.10
2019-04-20T17:15:23.749Z,22.13
2019-04-20T17:20:30.681Z,19.17
2019-04-20T17:25:35.766Z,21.17
2019-04-20T17:31:00.903Z,18.30
2019-04-20T17:36:14.454Z,16.20
2019-04-20T17:41:38.528Z,16.17
2019-04-20T17:46:35.814Z,15.57
2019-04-20T17:51:52.335Z,14.13
2019-04-20T17:56:38.367Z,12.53
2019-04-20T18:02:20.427Z,43.07
2019-04-20T18:07:41.101Z,36.97
2019-04-20T18:12:34.431Z,33.77
2019-04-20T18:18:08.412Z,29.87
2019-04-20T18:22:58.772Z,44.97
2019-04-20T18:28:20.942Z,43.80
2019-04-20T18:33:13.688Z,41.73
2019-04-20T18:38:20.152Z,48.43
2019-04-20T18:43:27.957Z,75.27
2019-04-20T18:48:52.343Z,68.23
2019-04-20T18:53:42.928Z,60.30
2019-04-20T18:58:45.551Z,64.80
2019-04-20T19:03:51.967Z,71.37
2019-04-20T19:08:58.879Z,71.67
2019-04-20T19:14:31.307Z,80.30
2019-04-20T19:19:39.930Z,85.70
2019-04-20T19:24:42.839Z,92.90
2019-04-20T19:29:58.938Z,106.00
2019-04-20T19:35:01.583Z,113.17
2019-04-20T19:40:13.127Z,110.03
2019-04-20T19:45:40.024Z,101.83
2019-04-20T19:50:54.758Z,95.77
2019-04-20T19:55:40.446Z,91.93
2019-04-20T20:00:58.188Z,95.43
2019-04-20T20:06:02.115Z,93.63
2019-04-20T20:11:11.969Z,101.63
2019-04-20T20:16:24.417Z,143.20
2019-04-20T20:21:32.909Z,175.87
2019-04-20T20:26:33.472Z,179.80
2019-04-20T20:31:52.813Z,182.00
2019-04-20T20:36:48.588Z,179.67
2019-04-20T20:41:59.369Z,195.67
2019-04-20T20:47:05.973Z,234.33
2019-04-20T20:52:26.350Z,236.30
2019-04-20T20:57:15.326Z,223.33
2019-04-20T21:02:23.653Z,213.63
2019-04-20T21:07:24.717Z,224.40
2019-04-20T21:12:30.585Z,212.00
2019-04-20T21:17:49.191Z,183.10
2019-04-20T21:23:01.389Z,158.43
2019-04-20T21:27:50.817Z,129.57
2019-04-20T21:33:01.522Z,120.40
2019-04-20T21:38:07.730Z,232.17
2019-04-20T21:43:11.328Z,202.87
2019-04-20T21:48:35.033Z,174.23
2019-04-20T21:53:29.536Z,141.47
2019-04-20T21:58:35.438Z,147.40
2019-04-20T22:03:38.304Z,145.50
2019-04-20T22:08:50.026Z,148.40
2019-04-20T22:13:51.683Z,111.10
2019-04-20T22:19:14.647Z,105.30
2019-04-20T22:24:19.520Z,99.77
2019-04-20T22:29:12.081Z,93.03
2019-04-20T22:34:21.396Z,93.87
2019-04-20T22:39:32.244Z,89.30
2019-04-20T22:44:36.183Z,89.03
2019-04-20T22:49:52.812Z,118.67
2019-04-20T22:55:12.407Z,143.70
2019-04-20T23:00:03.503Z,163.10
2019-04-20T23:05:02.693Z,173.33
2019-04-20T23:10:08.962Z,166.67
2019-04-20T23:15:16.298Z,161.43
2019-04-20T23:20:26.943Z,149.27
2019-04-20T23:25:29.296Z,152.80
2019-04-20T23:30:38.810Z,153.93
2019-04-20T23:35:43.726Z,149.10
2019-04-20T23:40:47.893Z,171.40
2019-04-20T23:46:31.076Z,151.27
2019-04-20T23:51:54.005Z,133.87
2019-04-20T23:56:41.666Z,129.13
